Weather reports worldwide

Advertisment
Maseskar, Sweden (2505): temperature & dewpoint: 17.10.2019 21:00:00 - 23.10.2019 21:00:00 (CEST)Maseskar, Sweden (2505): wind speed & gusts: 17.10.2019 21:00:00 - 23.10.2019 21:00:00 (CEST)Maseskar, Sweden (2505): wind direction: 17.10.2019 21:00:00 - 23.10.2019 21:00:00 (CEST)Maseskar, Sweden (2505): visibility: 17.10.2019 21:00:00 - 23.10.2019 21:00:00 (CEST)Maseskar, Sweden (2505): precipitation: 17.10.2019 21:00:00 - 23.10.2019 21:00:00 (CEST)
Date & Time tt [°C] td [°C] ff [km/h] ff [kn] fx [km/h] fx [kn] dd vv [km] rr [mm]
23.10.2019 21:00:00 - - - - - - - - -
23.10.2019 20:00:00 12,3 9,3 34 18 45 24 SSW 15 0,0
23.10.2019 19:00:00 12,3 9,7 35 19 45 24 SSW 14 0,0
23.10.2019 18:00:00 12,4 9,8 27 15 37 20 SSW 14 0,0
23.10.2019 17:00:00 12,4 9,6 25 14 36 19 SSW 13 0,0
23.10.2019 16:00:00 12,2 9,8 27 15 38 21 SSW 12 0,0
23.10.2019 15:00:00 12,7 8,8 31 17 44 24 SW 11 0,0
23.10.2019 14:00:00 12,5 8,8 35 19 46 25 SW 12 0,0
23.10.2019 13:00:00 12,1 8,6 36 19 47 25 SW 10 0,0
23.10.2019 12:00:00 11,9 8,9 34 18 46 25 SW 10 0,0
23.10.2019 11:00:00 12,1 8,9 34 19 44 24 SW 9 0,0
23.10.2019 10:00:00 11,9 8,9 31 17 50 27 SW 9 0,0
23.10.2019 09:00:00 12,0 8,5 29 16 46 25 SW 9 0,0
23.10.2019 08:00:00 12,4 7,7 34 18 46 25 WSW 9 0,0
23.10.2019 07:00:00 12,3 7,4 36 19 49 27 WSW 8 0,0
23.10.2019 06:00:00 12,3 8,2 39 21 50 27 WSW 8 0,0
23.10.2019 05:00:00 12,3 8,4 35 19 47 26 WSW 8 0,0
23.10.2019 04:00:00 12,2 8,3 37 20 50 27 W - 0,0
23.10.2019 03:00:00 12,1 8,2 38 20 53 29 W - 0,0
23.10.2019 02:00:00 - - - - 56 30 - - -
23.10.2019 01:00:00 12,4 8,7 44 24 58 31 W 9 0,0
23.10.2019 00:00:00 12,4 8,7 42 23 56 30 W 8 0,0
22.10.2019 23:00:00 12,4 8,7 41 22 53 28 W 7 0,0
22.10.2019 22:00:00 12,3 8,4 44 24 56 31 WSW 8 0,0
22.10.2019 21:00:00 12,3 8,0 46 25 58 31 W 8 0,0
22.10.2019 20:00:00 12,2 7,9 44 24 59 32 W 8 0,0
22.10.2019 19:00:00 12,0 7,5 47 26 58 31 W 8 0,0
22.10.2019 18:00:00 12,2 8,1 45 24 61 33 WSW 8 0,0
22.10.2019 17:00:00 12,1 8,9 46 25 60 32 WSW 8 0,0
22.10.2019 16:00:00 11,9 8,4 45 24 59 32 WSW 8 0,0
22.10.2019 15:00:00 12,2 8,7 44 24 54 29 WSW 9 0,0
22.10.2019 14:00:00 12,0 7,7 43 23 54 29 WSW 10 0,0
22.10.2019 13:00:00 12,1 8,0 43 23 55 30 WSW 12 0,0
22.10.2019 12:00:00 12,0 7,9 35 19 45 25 WSW 12 0,0
22.10.2019 11:00:00 11,2 9,8 34 19 47 25 WSW 10 0,0
22.10.2019 10:00:00 11,0 7,7 38 20 44 24 SW 21 0,0
22.10.2019 09:00:00 10,5 7,9 34 18 42 23 SW 21 0,0
22.10.2019 08:00:00 10,4 7,3 33 18 40 21 SW 26 0,0
22.10.2019 07:00:00 9,9 7,5 30 16 40 22 SW 32 0,0
22.10.2019 06:00:00 9,6 7,0 29 15 36 20 SW 39 0,0
22.10.2019 05:00:00 9,5 7,1 26 14 35 19 SW 45 0,0
22.10.2019 04:00:00 9,4 7,3 25 13 32 17 SW 48 0,0
22.10.2019 03:00:00 9,2 6,3 21 11 27 15 SSW 50 0,0
22.10.2019 02:00:00 8,8 5,9 15 8 19 11 SSW 50 0,0
22.10.2019 01:00:00 8,1 5,4 7 4 15 8 SW 50 0,0
22.10.2019 00:00:00 7,7 5,5 7 4 12 6 SSW 50 0,0
21.10.2019 23:00:00 7,1 4,9 6 3 16 9 W 50 0,0
21.10.2019 22:00:00 6,7 4,9 12 6 19 10 WNW 50 0,0
21.10.2019 21:00:00 6,4 4,7 10 5 14 8 W 50 0,0
21.10.2019 20:00:00 6,2 4,8 9 5 18 10 W 50 0,0
21.10.2019 19:00:00 6,3 5,1 4 2 10 6 WNW 50 0,0
21.10.2019 18:00:00 6,0 4,8 2 1 11 6 W 50 0,0
21.10.2019 17:00:00 6,0 4,7 7 4 11 6 NW 50 0,0
21.10.2019 16:00:00 5,9 4,7 5 3 10 6 ESE 50 0,0
21.10.2019 15:00:00 5,6 4,4 5 3 11 6 NNW 50 0,0
21.10.2019 14:00:00 5,6 4,6 4 2 10 5 N 50 0,0
21.10.2019 13:00:00 5,6 4,7 5 3 10 5 NNW 50 0,0
21.10.2019 12:00:00 5,4 4,8 3 2 13 7 NW 17 0,0
21.10.2019 11:00:00 4,9 4,3 6 3 13 7 NNE 35 0,0
21.10.2019 10:00:00 4,9 4,3 7 4 17 9 NNE 10 0,0
21.10.2019 09:00:00 4,9 4,0 10 5 21 11 NE 50 0,0
21.10.2019 08:00:00 5,2 4,5 5 3 19 10 NE 50 0,0
21.10.2019 07:00:00 5,6 4,7 13 7 25 13 NNE 50 0,0
21.10.2019 06:00:00 5,9 4,7 16 9 29 16 NNE 50 0,0
21.10.2019 05:00:00 7,0 5,3 19 10 30 16 N 50 0,0
21.10.2019 04:00:00 7,2 4,8 19 10 31 17 NNW 50 0,0
21.10.2019 03:00:00 7,8 5,6 22 12 35 19 NNW 50 0,0
21.10.2019 02:00:00 7,9 5,5 22 12 33 18 NNW 43 0,0
21.10.2019 01:00:00 8,3 6,1 24 13 34 18 NNW 50 0,0
21.10.2019 00:00:00 8,7 6,3 16 9 27 15 NNW 50 0,0
20.10.2019 23:00:00 9,1 7,4 18 10 30 16 NNW 47 0,0
20.10.2019 22:00:00 9,3 7,2 24 13 33 18 NNW 42 0,0
20.10.2019 21:00:00 9,6 7,9 18 10 25 14 N 40 0,0
20.10.2019 20:00:00 9,9 8,7 22 12 29 16 N 21 0,0
20.10.2019 19:00:00 10,3 9,1 22 12 27 15 N 21 0,0
20.10.2019 18:00:00 11,8 9,9 6 3 16 8 WSW 10 0,0
20.10.2019 17:00:00 12,0 9,9 9 5 17 9 SW 11 0,0
20.10.2019 16:00:00 12,0 10,1 13 7 24 13 WSW 11 0,0
20.10.2019 15:00:00 11,8 10,0 23 12 29 16 WSW 12 0,0
20.10.2019 14:00:00 12,0 10,2 24 13 33 18 SW 12 0,0
20.10.2019 13:00:00 12,0 10,2 26 14 38 21 SW 12 0,0
20.10.2019 12:00:00 11,9 10,6 27 15 35 19 S 10 0,0
20.10.2019 11:00:00 11,9 11,0 25 13 33 18 SSW 10 0,0
20.10.2019 10:00:00 11,8 10,7 19 11 28 15 SSW 13 0,0
20.10.2019 09:00:00 11,5 10,1 19 10 27 14 SSW 15 0,0
20.10.2019 08:00:00 11,4 9,1 20 11 32 18 SW 22 0,0
20.10.2019 07:00:00 11,4 10,0 25 14 31 17 SW 20 0,1
20.10.2019 06:00:00 11,7 10,4 18 10 23 12 SSW 36 0,0
20.10.2019 05:00:00 11,4 10,8 13 7 18 10 SSW 23 0,0
20.10.2019 04:00:00 11,0 10,7 10 5 20 11 ESE 12 0,3
20.10.2019 03:00:00 11,0 10,7 16 9 22 12 E 10 0,6
20.10.2019 02:00:00 - - - - 27 15 - - -
20.10.2019 01:00:00 11,2 10,6 26 14 37 20 SSE 7 1,0
20.10.2019 00:00:00 12,0 10,9 17 9 24 13 SSE 10 0,0
19.10.2019 23:00:00 12,1 10,8 20 11 29 16 S 9 0,0
19.10.2019 22:00:00 12,2 10,8 25 13 29 16 S 10 0,0
19.10.2019 21:00:00 12,1 10,8 22 12 32 17 S 8 0,0
19.10.2019 20:00:00 12,1 10,2 25 13 40 21 S 9 0,0
19.10.2019 19:00:00 12,0 9,6 32 17 44 24 S 9 0,0
19.10.2019 18:00:00 12,1 9,5 39 21 46 25 S 10 0,0
19.10.2019 17:00:00 12,0 9,6 36 19 46 25 SSW 9 0,0
19.10.2019 16:00:00 12,2 9,8 39 21 53 28 SSW 9 0,0
19.10.2019 15:00:00 12,3 9,9 44 24 57 31 SSW 9 0,0
19.10.2019 14:00:00 12,2 9,9 43 23 57 31 SSW 8 0,0
19.10.2019 13:00:00 12,4 10,1 45 24 57 31 SSW 9 0,0
19.10.2019 12:00:00 12,4 9,6 44 24 65 35 SSW 9 0,0
19.10.2019 11:00:00 12,4 9,6 50 27 68 37 SSW 9 0,0
19.10.2019 10:00:00 12,2 10,1 47 25 63 34 SSW 8 0,0
19.10.2019 09:00:00 12,0 9,9 46 25 66 36 SSW 8 0,0
19.10.2019 08:00:00 12,1 9,7 49 26 66 35 SSW 9 0,0
19.10.2019 07:00:00 12,0 9,7 48 26 65 35 SSW 9 0,0
19.10.2019 06:00:00 12,0 9,9 48 26 63 34 SSW 9 0,0
19.10.2019 05:00:00 11,9 9,8 53 28 66 35 SSW 9 0,0
19.10.2019 04:00:00 11,9 9,8 49 26 66 36 SSW 9 0,1
19.10.2019 03:00:00 11,4 10,0 45 24 60 33 SSW 7 0,1
19.10.2019 02:00:00 11,6 9,7 41 22 55 30 SSW 15 0,0
19.10.2019 01:00:00 11,8 9,4 43 23 58 32 SSW 16 0,0
19.10.2019 00:00:00 12,2 10,8 43 23 60 33 S 11 1,9
18.10.2019 23:00:00 12,1 11,5 32 18 50 27 ESE 8 2,1
18.10.2019 22:00:00 11,5 11,0 35 19 43 23 E 5 1,0
18.10.2019 21:00:00 11,5 10,9 34 18 39 21 E 19 0,2
18.10.2019 20:00:00 11,1 10,5 27 14 31 17 E 17 0,0
18.10.2019 19:00:00 11,2 10,6 22 12 28 15 ESE 14 0,0
18.10.2019 18:00:00 11,2 10,7 24 13 35 19 ESE 21 0,0
18.10.2019 17:00:00 10,2 9,7 27 14 46 25 E 10 0,0
18.10.2019 16:00:00 10,0 9,4 34 19 42 23 E 4,5 0,5
18.10.2019 15:00:00 9,9 9,1 30 16 37 20 E 5 0,2
18.10.2019 14:00:00 10,4 8,5 26 14 33 18 E 34 0,0
18.10.2019 13:00:00 10,6 8,2 26 14 31 17 ESE 36 0,0
18.10.2019 12:00:00 10,4 8,8 24 13 28 15 ESE 32 0,0
18.10.2019 11:00:00 9,9 9,1 23 12 27 14 ESE 18 0,0
18.10.2019 10:00:00 9,4 9,3 19 11 26 14 ESE - 0,0
18.10.2019 09:00:00 10,2 9,6 18 10 24 13 SE 14 0,0
18.10.2019 08:00:00 11,0 9,3 20 11 27 15 S 15 0,0
18.10.2019 07:00:00 11,0 9,4 20 11 24 13 S 15 0,0
18.10.2019 06:00:00 11,1 9,2 16 8 18 10 S 15 0,0
18.10.2019 05:00:00 11,0 8,9 8 4 14 7 WSW 12 0,0
18.10.2019 04:00:00 11,1 8,5 10 6 32 17 W 14 0,0
18.10.2019 03:00:00 11,7 9,4 22 12 32 17 WSW 12 0,0
18.10.2019 02:00:00 12,0 9,7 24 13 31 17 WSW 13 0,0
18.10.2019 01:00:00 12,2 9,9 25 13 34 18 WSW 13 0,0
18.10.2019 00:00:00 12,1 9,8 29 15 36 19 WSW 14 0,0
17.10.2019 23:00:00 12,3 10,0 21 11 27 14 SW 19 0,0
17.10.2019 22:00:00 12,3 9,7 19 10 27 14 WSW 16 0,0
17.10.2019 21:00:00 12,5 9,9 20 11 29 16 SW 19 0,0

tt = temperature
td = dewpoint
ff = wind speed
fx = gusts
dd = wind direction
vv = visibility
rr = precipitation

Next stations